Terminal Aerodrome Forecast
Issued by NWS

Home | Current Version | Previous Version | Text Only | Print | Product List | Glossary On
Versions: 1 2 3 4 5 6 7 8 9 10 11 12 13 14 15 16 17 18
125
FTUS43 KGRR 220954 AAA
TAFJXN
TAF AMD
KJXN 220954Z 2210/2306 21010G22KT 6SM -SHRA VCTS SCT035CB OVC080
      TEMPO 2210/2214 3SM -TSRA BR OVC025CB
     FM221400 23013G20KT P6SM OVC019
     FM221800 26014G21KT P6SM OVC035
     FM230000 30005KT P6SM SKC=

USA.gov is the U.S. government's official web portal to all federal, state and local government web resources and services.